METAR AND TAF INFORMATION
METAR FOR SBPC
ADDS - METARS form results

(2059 UTC 21 March 2019)
Data provider http://aviationweather.gov/metar/data/
 
METAR text: SBPC 212000Z 05002KT 5000 -RA BR SCT010 BKN015 20/20 Q1015
Conditions at: SBPC (POCOS DE CALDAS , BR) observed 2000 UTC 21 March 2019
Temperature: 20.0°C (68°F)
Dewpoint: 20.0°C (68°F) [RH = 100%]
Pressure (altimeter): 29.97 inches Hg (1015.0 mb)
Winds: from the NE (50 degrees) at 2 MPH (2 knots; 1.0 m/s)
Visibility: 3 miles ( 5 km)
Ceiling: 1500 feet AGL
Clouds: scattered clouds at 1000 feet AGL
broken clouds at 1500 feet AGL
Weather: -RA BR  (light rain, mist)

 AIRPORT MAP

 RUNWAY INFORMATION
Runway 9 Runway length 4970 ft Runway width 98 ft
Runway elevation 0 ft Runway displaced threshold 0 ft Runway heading 0
Runway 27 Runway length 4970 ft Runway width 98 ft
Runway elevation 0 ft Runway displaced threshold 0 ft Runway heading 0

 AIRPORT FREQUENCIES
Type AFIS Name RDO Frequency 126.6 MHZ

 AIRPORT NEAR NAVIGATION AIDS
Type NDB Name Pocos Frequency 415 KHZ



Powered by Virtual Airlines Manager [v2.6.2]